Time;durP1;ratioP1;P1;durP2;ratioP2;P2;SDS_P1;SDS_P2;PMS_P1;PMS_P2;Temp;Humidity;BMP_temperature;BMP_pressure;BME280_temperature;BME280_humidity;BME280_pressure;Samples;Min_cycle;Max_cycle;Signal;HPM_P1;HPM_P2
2024/02/15 00:01:15;;;;;;;4.45;2.63;;;;;;;;;;4995540;28;20035;-76
2024/02/15 00:03:40;;;;;;;3.63;2.08;;;;;;;;;;4997847;28;20490;-75
2024/02/15 00:06:05;;;;;;;4.88;2.88;;;;;;;;;;4991512;28;20058;-76
2024/02/15 00:08:31;;;;;;;5.15;2.78;;;;;;;;;;4995592;28;20100;-75
2024/02/15 00:10:56;;;;;;;5.25;2.55;;;;;;;;;;4998940;28;20029;-76
2024/02/15 00:13:22;;;;;;;4.80;2.90;;;;;;;;;;4997294;28;20056;-75
2024/02/15 00:15:48;;;;;;;4.85;2.25;;;;;;;;;;4997344;28;20053;-76
2024/02/15 00:18:13;;;;;;;4.78;2.53;;;;;;;;;;4997273;28;20026;-75
2024/02/15 00:20:38;;;;;;;4.80;2.53;;;;;;;;;;4991201;28;20120;-75
2024/02/15 00:23:04;;;;;;;6.40;3.40;;;;;;;;;;4993412;28;20157;-76
2024/02/15 00:25:30;;;;;;;4.93;3.25;;;;;;;;;;4995156;28;20072;-76
2024/02/15 00:27:55;;;;;;;6.03;3.00;;;;;;;;;;5000207;28;20070;-76
2024/02/15 00:30:21;;;;;;;4.93;2.90;;;;;;;;;;5000106;28;20486;-75
2024/02/15 00:32:46;;;;;;;3.97;2.35;;;;;;;;;;4998016;28;20427;-76
2024/02/15 00:35:13;;;;;;;5.05;2.60;;;;;;;;;;4996244;28;20023;-74
2024/02/15 00:37:38;;;;;;;5.55;3.03;;;;;;;;;;4996978;28;20403;-76
2024/02/15 00:40:03;;;;;;;4.60;2.40;;;;;;;;;;4997971;28;20038;-76
2024/02/15 00:42:30;;;;;;;3.70;2.00;;;;;;;;;;4999539;28;20038;-75
2024/02/15 00:44:55;;;;;;;4.70;2.20;;;;;;;;;;5002567;28;20034;-75
2024/02/15 00:47:21;;;;;;;5.43;2.77;;;;;;;;;;4996258;28;20507;-75
2024/02/15 00:49:46;;;;;;;5.53;2.83;;;;;;;;;;4995673;28;20316;-76
2024/02/15 00:52:11;;;;;;;4.15;2.20;;;;;;;;;;4998460;28;20066;-75
2024/02/15 00:54:36;;;;;;;3.80;2.30;;;;;;;;;;4998168;28;20026;-76
2024/02/15 00:57:01;;;;;;;4.30;2.60;;;;;;;;;;5001576;28;20034;-76
2024/02/15 00:59:27;;;;;;;3.90;2.50;;;;;;;;;;5008771;28;20099;-76
2024/02/15 01:01:53;;;;;;;5.00;1.85;;;;;;;;;;4997000;28;20432;-76
2024/02/15 01:04:18;;;;;;;4.47;2.20;;;;;;;;;;4995474;28;20042;-76
2024/02/15 01:06:43;;;;;;;3.35;2.15;;;;;;;;;;4998382;28;20041;-76
2024/02/15 01:09:09;;;;;;;3.78;2.47;;;;;;;;;;4999820;28;20045;-76
2024/02/15 01:11:37;;;;;;;5.45;2.97;;;;;;;;;;4996659;28;20037;-76
2024/02/15 01:14:02;;;;;;;3.95;2.42;;;;;;;;;;5000693;28;20030;-76
2024/02/15 01:16:27;;;;;;;4.10;2.55;;;;;;;;;;4995092;28;20376;-76
2024/02/15 01:18:52;;;;;;;5.22;2.30;;;;;;;;;;4995817;28;20107;-76
2024/02/15 01:21:18;;;;;;;5.57;2.83;;;;;;;;;;4997158;28;20042;-76
2024/02/15 01:23:44;;;;;;;3.78;2.25;;;;;;;;;;4998467;28;20038;-76
2024/02/15 01:26:12;;;;;;;3.97;2.53;;;;;;;;;;5002209;28;20041;-76
2024/02/15 01:28:37;;;;;;;3.55;2.28;;;;;;;;;;4995853;28;20513;-76
2024/02/15 01:31:02;;;;;;;3.83;2.38;;;;;;;;;;4994107;28;20030;-76
2024/02/15 01:33:27;;;;;;;3.80;2.28;;;;;;;;;;4997056;28;20041;-76
2024/02/15 01:35:53;;;;;;;3.63;1.92;;;;;;;;;;4993497;28;20030;-76
2024/02/15 01:38:18;;;;;;;6.75;2.88;;;;;;;;;;5000881;28;20379;-76
2024/02/15 01:40:43;;;;;;;4.85;2.88;;;;;;;;;;4996630;28;20027;-76
2024/02/15 01:43:09;;;;;;;3.95;2.75;;;;;;;;;;4999856;28;20038;-76
2024/02/15 01:45:34;;;;;;;4.07;2.63;;;;;;;;;;4994741;28;20061;-76
2024/02/15 01:47:59;;;;;;;4.43;2.90;;;;;;;;;;4995984;28;20294;-75
2024/02/15 01:50:24;;;;;;;5.00;2.92;;;;;;;;;;4997584;28;20042;-75
2024/02/15 01:52:52;;;;;;;4.68;2.60;;;;;;;;;;4999224;28;20034;-76
2024/02/15 01:55:18;;;;;;;3.53;2.17;;;;;;;;;;5002704;28;20038;-75
2024/02/15 01:57:47;;;;;;;3.55;2.10;;;;;;;;;;4993606;28;20022;-75
2024/02/15 02:00:13;;;;;;;3.50;2.08;;;;;;;;;;4994710;28;20510;-75
2024/02/15 02:02:41;;;;;;;5.72;2.38;;;;;;;;;;4993144;28;20041;-75
2024/02/15 02:05:07;;;;;;;3.10;2.00;;;;;;;;;;4994934;28;20042;-76
2024/02/15 02:07:32;;;;;;;2.35;1.33;;;;;;;;;;4999467;28;20040;-76
2024/02/15 02:09:58;;;;;;;4.03;2.10;;;;;;;;;;4999919;28;20407;-76
2024/02/15 02:12:24;;;;;;;3.05;1.90;;;;;;;;;;4993923;28;20114;-76
2024/02/15 02:14:50;;;;;;;3.60;2.05;;;;;;;;;;4995049;28;20030;-76
2024/02/15 02:17:15;;;;;;;4.85;2.65;;;;;;;;;;4997139;28;20544;-76
2024/02/15 02:19:41;;;;;;;3.53;1.95;;;;;;;;;;4997669;28;20030;-76
2024/02/15 02:22:09;;;;;;;5.10;1.80;;;;;;;;;;4998850;28;20398;-76
2024/02/15 02:24:36;;;;;;;4.15;2.50;;;;;;;;;;4996749;28;20042;-76
2024/02/15 02:27:03;;;;;;;4.38;2.42;;;;;;;;;;4993714;28;20026;-76
2024/02/15 02:29:30;;;;;;;3.70;1.80;;;;;;;;;;4996501;28;20026;-76
2024/02/15 02:31:56;;;;;;;3.38;1.52;;;;;;;;;;4995036;28;20112;-76
2024/02/15 02:34:21;;;;;;;4.38;2.03;;;;;;;;;;4999008;28;20134;-76
2024/02/15 02:36:47;;;;;;;4.07;2.60;;;;;;;;;;4999108;28;20554;-76
2024/02/15 02:39:12;;;;;;;5.10;1.83;;;;;;;;;;4991949;28;20292;-76
2024/02/15 02:41:38;;;;;;;3.13;1.80;;;;;;;;;;4999129;28;20026;-76
2024/02/15 02:44:03;;;;;;;4.20;2.20;;;;;;;;;;4999210;28;20331;-76
2024/02/15 02:46:28;;;;;;;3.40;1.75;;;;;;;;;;4998030;28;20303;-76
2024/02/15 02:48:53;;;;;;;3.37;1.70;;;;;;;;;;4996623;28;20058;-76
2024/02/15 02:51:18;;;;;;;4.20;1.77;;;;;;;;;;4997286;28;20288;-76
2024/02/15 02:53:43;;;;;;;4.53;1.85;;;;;;;;;;4992727;28;20293;-76
2024/02/15 02:56:09;;;;;;;3.08;1.67;;;;;;;;;;4994928;28;20034;-76
2024/02/15 02:58:34;;;;;;;4.05;2.00;;;;;;;;;;4994173;28;20035;-76
2024/02/15 03:01:02;;;;;;;4.97;2.05;;;;;;;;;;4995983;28;20530;-76
2024/02/15 03:03:27;;;;;;;3.47;1.48;;;;;;;;;;4997188;28;20038;-76
2024/02/15 03:05:54;;;;;;;4.50;1.60;;;;;;;;;;4995308;28;20084;-76
2024/02/15 03:08:19;;;;;;;3.30;1.90;;;;;;;;;;4993675;28;20022;-76
2024/02/15 03:10:44;;;;;;;3.45;1.50;;;;;;;;;;4995381;28;20479;-76
2024/02/15 03:13:09;;;;;;;4.83;1.70;;;;;;;;;;4997397;28;20118;-76
2024/02/15 03:15:35;;;;;;;3.08;1.52;;;;;;;;;;4997560;28;20705;-76
2024/02/15 03:18:00;;;;;;;4.35;1.90;;;;;;;;;;5000163;28;20041;-76
2024/02/15 03:20:25;;;;;;;3.33;1.58;;;;;;;;;;4992843;28;20064;-76
2024/02/15 03:22:54;;;;;;;5.03;1.80;;;;;;;;;;4996139;28;20034;-75
2024/02/15 03:25:19;;;;;;;2.65;1.48;;;;;;;;;;4995897;28;20033;-76
2024/02/15 03:27:45;;;;;;;3.25;1.63;;;;;;;;;;4995839;28;20065;-76
2024/02/15 03:30:10;;;;;;;3.25;1.65;;;;;;;;;;4999366;28;20037;-76
2024/02/15 03:32:36;;;;;;;2.95;1.92;;;;;;;;;;4996883;28;20065;-76
2024/02/15 03:35:02;;;;;;;4.05;2.30;;;;;;;;;;4991600;28;20046;-77
2024/02/15 03:37:27;;;;;;;3.65;1.92;;;;;;;;;;4990726;28;20125;-77
2024/02/15 03:39:52;;;;;;;3.92;1.85;;;;;;;;;;4994638;28;20068;-77
2024/02/15 03:42:17;;;;;;;4.00;2.38;;;;;;;;;;4999320;28;20037;-77
2024/02/15 03:44:43;;;;;;;3.60;1.70;;;;;;;;;;4997467;28;20157;-77
2024/02/15 03:47:08;;;;;;;4.00;1.80;;;;;;;;;;4998325;28;20290;-77
2024/02/15 03:49:33;;;;;;;4.25;2.45;;;;;;;;;;4992274;28;20292;-77
2024/02/15 03:52:01;;;;;;;3.60;2.13;;;;;;;;;;4995406;28;20027;-77
2024/02/15 03:54:26;;;;;;;4.57;2.80;;;;;;;;;;4991623;28;20630;-77
2024/02/15 03:56:52;;;;;;;3.95;2.33;;;;;;;;;;4997390;28;20022;-77
2024/02/15 03:59:26;;;;;;;4.60;2.97;;;;;;;;;;5000767;28;20046;-77
2024/02/15 04:01:55;;;;;;;3.65;2.20;;;;;;;;;;4997485;28;20034;-77
2024/02/15 04:04:23;;;;;;;4.90;2.70;;;;;;;;;;4993758;28;20041;-77
2024/02/15 04:06:49;;;;;;;2.83;1.50;;;;;;;;;;4998072;28;20050;-77
2024/02/15 04:09:14;;;;;;;3.97;1.90;;;;;;;;;;5001469;28;20034;-76
2024/02/15 04:11:40;;;;;;;2.78;1.65;;;;;;;;;;5001048;28;20034;-77
2024/02/15 04:14:05;;;;;;;2.72;1.48;;;;;;;;;;5004465;28;20033;-77
2024/02/15 04:16:31;;;;;;;3.65;1.90;;;;;;;;;;4996610;28;20042;-76
2024/02/15 04:18:59;;;;;;;5.68;3.17;;;;;;;;;;4996512;28;20093;-77
2024/02/15 04:21:24;;;;;;;5.30;3.35;;;;;;;;;;5001183;28;20026;-77
2024/02/15 04:23:51;;;;;;;3.58;2.40;;;;;;;;;;4999281;28;20491;-77
2024/02/15 04:26:16;;;;;;;3.50;2.20;;;;;;;;;;5004012;28;20065;-77
2024/02/15 04:28:41;;;;;;;3.27;1.63;;;;;;;;;;5001760;28;20444;-77
2024/02/15 04:31:08;;;;;;;3.93;2.33;;;;;;;;;;4997382;28;20273;-77
2024/02/15 04:33:36;;;;;;;2.92;1.45;;;;;;;;;;4995653;28;20281;-77
2024/02/15 04:36:04;;;;;;;5.15;2.53;;;;;;;;;;4998730;28;20046;-77
2024/02/15 04:38:29;;;;;;;3.47;1.95;;;;;;;;;;4998077;28;20026;-77
2024/02/15 04:40:54;;;;;;;2.58;1.60;;;;;;;;;;5001021;28;20404;-77
2024/02/15 04:43:20;;;;;;;4.63;1.57;;;;;;;;;;5001084;28;20042;-77
2024/02/15 04:45:45;;;;;;;3.30;1.67;;;;;;;;;;5002340;28;20281;-77
2024/02/15 04:48:13;;;;;;;3.08;1.85;;;;;;;;;;4997848;28;20192;-77
2024/02/15 04:50:39;;;;;;;3.47;2.10;;;;;;;;;;5000132;28;20030;-74
2024/02/15 04:53:05;;;;;;;3.50;2.00;;;;;;;;;;4999095;28;20084;-75
2024/02/15 04:55:31;;;;;;;3.20;1.77;;;;;;;;;;5002502;28;20513;-74
2024/02/15 04:57:56;;;;;;;3.15;1.90;;;;;;;;;;4994399;28;20496;-75
2024/02/15 05:00:22;;;;;;;3.00;1.70;;;;;;;;;;4990411;28;20461;-75
2024/02/15 05:02:49;;;;;;;3.15;1.73;;;;;;;;;;4999030;28;20061;-75
2024/02/15 05:05:14;;;;;;;3.10;1.70;;;;;;;;;;4999652;28;20034;-75
2024/02/15 05:07:39;;;;;;;3.20;1.55;;;;;;;;;;5000141;28;20112;-75
2024/02/15 05:10:06;;;;;;;2.87;1.40;;;;;;;;;;5000516;28;20046;-75
2024/02/15 05:12:31;;;;;;;3.92;1.90;;;;;;;;;;4995439;28;20670;-75
2024/02/15 05:14:56;;;;;;;3.10;1.90;;;;;;;;;;4997632;28;20038;-75
2024/02/15 05:17:22;;;;;;;3.50;1.88;;;;;;;;;;4998480;28;20112;-75
2024/02/15 05:19:47;;;;;;;37.93;22.37;;;;;;;;;;4998508;28;20073;-75
2024/02/15 05:22:13;;;;;;;7.97;4.72;;;;;;;;;;5001936;28;20312;-74
2024/02/15 05:24:38;;;;;;;4.40;2.50;;;;;;;;;;5003903;28;20030;-75
2024/02/15 05:27:04;;;;;;;4.75;2.50;;;;;;;;;;4993561;28;20129;-75
2024/02/15 05:29:33;;;;;;;2.67;1.45;;;;;;;;;;4990912;28;20041;-75
2024/02/15 05:31:59;;;;;;;4.43;2.50;;;;;;;;;;4993621;28;20109;-75
2024/02/15 05:34:24;;;;;;;3.55;1.90;;;;;;;;;;4988025;28;20101;-75
2024/02/15 05:36:49;;;;;;;5.72;2.40;;;;;;;;;;4997217;28;20125;-74
2024/02/15 05:39:14;;;;;;;4.30;2.70;;;;;;;;;;4993248;28;20466;-75
2024/02/15 05:41:40;;;;;;;8.57;4.22;;;;;;;;;;4993027;28;20491;-74
2024/02/15 05:44:06;;;;;;;5.35;3.42;;;;;;;;;;4993884;28;20479;-74
2024/02/15 05:46:31;;;;;;;5.18;3.38;;;;;;;;;;4997737;28;20494;-74
2024/02/15 05:48:57;;;;;;;6.13;3.55;;;;;;;;;;4999173;28;20081;-74
2024/02/15 05:51:22;;;;;;;5.57;2.45;;;;;;;;;;5002475;28;20037;-74
2024/02/15 05:53:49;;;;;;;3.05;1.67;;;;;;;;;;4993423;28;20023;-74
2024/02/15 05:56:14;;;;;;;3.03;1.90;;;;;;;;;;4998149;28;20037;-75
2024/02/15 05:58:39;;;;;;;4.90;2.20;;;;;;;;;;4991404;28;20058;-75
2024/02/15 06:01:06;;;;;;;2.60;1.50;;;;;;;;;;4997621;28;20046;-75
2024/02/15 06:03:33;;;;;;;3.72;2.00;;;;;;;;;;4997667;28;20117;-75
2024/02/15 06:06:06;;;;;;;4.10;2.55;;;;;;;;;;4996920;28;20476;-75
2024/02/15 06:08:31;;;;;;;4.35;2.72;;;;;;;;;;4993222;28;20528;-75
2024/02/15 06:10:56;;;;;;;3.90;2.40;;;;;;;;;;4994216;28;20026;-75
2024/02/15 06:13:22;;;;;;;3.83;2.20;;;;;;;;;;4997328;28;20273;-75
2024/02/15 06:15:52;;;;;;;5.10;2.90;;;;;;;;;;4998021;28;20034;-75
2024/02/15 06:18:21;;;;;;;3.92;2.33;;;;;;;;;;5002506;28;20034;-75
2024/02/15 06:20:49;;;;;;;4.15;2.60;;;;;;;;;;4996121;28;20109;-75
2024/02/15 06:23:14;;;;;;;3.83;1.88;;;;;;;;;;4996939;28;20045;-75
2024/02/15 06:25:39;;;;;;;3.35;1.80;;;;;;;;;;4995723;28;20034;-75
2024/02/15 06:28:13;;;;;;;4.50;2.58;;;;;;;;;;4997446;28;20039;-75
2024/02/15 06:41:34;;;;;;;3.38;1.50;;;;;;;;;;4989915;28;20099;-75
2024/02/15 06:43:59;;;;;;;3.15;1.73;;;;;;;;;;4998110;28;20569;-75
2024/02/15 06:46:24;;;;;;;3.88;2.03;;;;;;;;;;4998750;28;20551;-75
2024/02/15 06:48:49;;;;;;;3.30;1.75;;;;;;;;;;4995755;28;20026;-75
2024/02/15 06:51:15;;;;;;;3.70;1.80;;;;;;;;;;4992434;28;20058;-75
2024/02/15 06:53:40;;;;;;;4.03;2.10;;;;;;;;;;4995306;28;20278;-75
2024/02/15 06:56:08;;;;;;;3.35;2.00;;;;;;;;;;4997070;28;20152;-75
2024/02/15 06:58:34;;;;;;;4.18;1.83;;;;;;;;;;4999120;28;20045;-75
2024/02/15 07:00:59;;;;;;;4.05;2.00;;;;;;;;;;4999642;28;20026;-75
2024/02/15 07:03:24;;;;;;;3.80;1.83;;;;;;;;;;4992721;28;20034;-75
2024/02/15 07:05:49;;;;;;;3.90;2.20;;;;;;;;;;4993862;28;20041;-75
2024/02/15 07:08:15;;;;;;;4.45;2.10;;;;;;;;;;4996527;28;20036;-75
2024/02/15 07:10:40;;;;;;;3.72;1.70;;;;;;;;;;4996462;28;20393;-75
2024/02/15 07:13:10;;;;;;;3.30;2.10;;;;;;;;;;4999355;28;20413;-75
2024/02/15 07:15:37;;;;;;;3.33;1.50;;;;;;;;;;4996556;28;20607;-75
2024/02/15 07:18:06;;;;;;;3.40;1.70;;;;;;;;;;4995480;28;20042;-75
2024/02/15 07:20:31;;;;;;;4.50;1.73;;;;;;;;;;4994573;28;20033;-75
2024/02/15 07:22:58;;;;;;;3.00;1.55;;;;;;;;;;4998533;28;20548;-75
2024/02/15 07:25:23;;;;;;;3.83;1.77;;;;;;;;;;4996374;28;20085;-75
2024/02/15 07:27:48;;;;;;;4.03;1.83;;;;;;;;;;4997892;28;20034;-75
2024/02/15 07:30:14;;;;;;;2.65;1.33;;;;;;;;;;4994721;28;20022;-75
2024/02/15 07:32:40;;;;;;;4.10;2.13;;;;;;;;;;4993501;28;20054;-75
2024/02/15 07:35:07;;;;;;;2.97;1.50;;;;;;;;;;4989590;28;20114;-75
2024/02/15 07:37:33;;;;;;;2.20;1.30;;;;;;;;;;4997225;28;20431;-75
2024/02/15 07:39:58;;;;;;;3.42;1.92;;;;;;;;;;4997339;28;20030;-75
2024/02/15 07:42:25;;;;;;;2.90;1.40;;;;;;;;;;4996179;28;20525;-75
2024/02/15 07:44:50;;;;;;;2.45;1.25;;;;;;;;;;4989271;28;20498;-75
2024/02/15 07:47:19;;;;;;;3.10;1.50;;;;;;;;;;4995661;28;20066;-75
2024/02/15 07:49:45;;;;;;;3.90;1.92;;;;;;;;;;4998461;28;20446;-75
2024/02/15 07:52:10;;;;;;;3.83;2.17;;;;;;;;;;4996732;28;20038;-75
2024/02/15 07:54:35;;;;;;;5.37;2.20;;;;;;;;;;4998040;28;20065;-75
2024/02/15 07:57:00;;;;;;;4.00;2.17;;;;;;;;;;4998141;28;20629;-75
2024/02/15 07:59:25;;;;;;;5.05;2.30;;;;;;;;;;4988043;28;20313;-75
2024/02/15 08:01:50;;;;;;;6.10;3.00;;;;;;;;;;4989629;28;20085;-75
2024/02/15 08:04:17;;;;;;;5.70;1.90;;;;;;;;;;4996370;28;20273;-75
2024/02/15 08:06:42;;;;;;;3.17;1.83;;;;;;;;;;4996096;28;20037;-75
2024/02/15 08:09:13;;;;;;;3.75;1.73;;;;;;;;;;4995973;28;20034;-75
2024/02/15 08:11:40;;;;;;;3.30;1.70;;;;;;;;;;4989603;28;20108;-75
2024/02/15 08:14:08;;;;;;;3.92;2.28;;;;;;;;;;4992219;28;20038;-75
2024/02/15 08:16:34;;;;;;;3.95;2.03;;;;;;;;;;4992712;28;20034;-75
2024/02/15 08:19:00;;;;;;;5.50;2.40;;;;;;;;;;4991249;28;20452;-75
2024/02/15 08:21:27;;;;;;;3.00;1.52;;;;;;;;;;4995720;28;20034;-75
2024/02/15 08:23:52;;;;;;;2.33;1.08;;;;;;;;;;4993788;28;20047;-75
2024/02/15 08:26:17;;;;;;;3.42;1.20;;;;;;;;;;4993708;28;20085;-75
2024/02/15 08:28:42;;;;;;;2.63;1.20;;;;;;;;;;4992284;28;20030;-75
2024/02/15 08:31:09;;;;;;;2.23;1.10;;;;;;;;;;4993718;28;20049;-75
2024/02/15 08:33:35;;;;;;;2.85;1.10;;;;;;;;;;4995607;28;20682;-75
2024/02/15 08:36:02;;;;;;;2.80;0.98;;;;;;;;;;4995896;28;20026;-75
2024/02/15 08:38:27;;;;;;;2.00;0.95;;;;;;;;;;5000984;28;20399;-75
2024/02/15 08:40:53;;;;;;;3.55;1.17;;;;;;;;;;4991103;28;20049;-75
2024/02/15 08:43:18;;;;;;;4.32;1.40;;;;;;;;;;4996014;28;20041;-75
2024/02/15 08:45:43;;;;;;;4.57;1.20;;;;;;;;;;4991286;28;20125;-75
2024/02/15 08:48:09;;;;;;;3.25;1.08;;;;;;;;;;4996260;28;20096;-75
2024/02/15 08:50:47;;;;;;;4.40;1.40;;;;;;;;;;5000047;28;20483;-75
2024/02/15 08:53:14;;;;;;;3.70;1.58;;;;;;;;;;4982331;28;20029;-75
2024/02/15 08:55:40;;;;;;;3.70;1.42;;;;;;;;;;4995035;28;20058;-75
2024/02/15 08:58:05;;;;;;;4.13;1.35;;;;;;;;;;4997090;28;20073;-75
2024/02/15 09:00:30;;;;;;;3.90;1.30;;;;;;;;;;4987478;28;20034;-75
2024/02/15 09:02:57;;;;;;;4.28;1.50;;;;;;;;;;5003320;28;20100;-75
2024/02/15 09:05:22;;;;;;;3.45;1.60;;;;;;;;;;4991987;28;20038;-75
2024/02/15 09:07:47;;;;;;;4.85;2.10;;;;;;;;;;4997484;28;20034;-75
2024/02/15 09:10:13;;;;;;;3.08;1.77;;;;;;;;;;4994798;28;20441;-75
2024/02/15 09:12:39;;;;;;;3.58;1.73;;;;;;;;;;4997768;28;20033;-75
2024/02/15 09:15:05;;;;;;;2.15;1.13;;;;;;;;;;4998313;28;20042;-75
2024/02/15 09:17:32;;;;;;;2.60;1.00;;;;;;;;;;5000404;28;20447;-75
2024/02/15 09:19:57;;;;;;;4.40;1.83;;;;;;;;;;5001433;28;20052;-75
2024/02/15 09:22:23;;;;;;;3.17;1.45;;;;;;;;;;4996906;28;20022;-75
2024/02/15 09:24:48;;;;;;;2.15;0.90;;;;;;;;;;4990386;28;20038;-75
2024/02/15 09:27:13;;;;;;;2.15;1.10;;;;;;;;;;4999013;28;20411;-75
2024/02/15 09:29:40;;;;;;;2.67;1.30;;;;;;;;;;4999311;28;20033;-75
2024/02/15 09:32:08;;;;;;;2.92;1.17;;;;;;;;;;4999376;28;20442;-78
2024/02/15 09:34:33;;;;;;;2.58;1.00;;;;;;;;;;4976010;28;20037;-78
2024/02/15 09:36:58;;;;;;;3.13;1.60;;;;;;;;;;4998153;28;20034;-78
2024/02/15 09:39:23;;;;;;;3.57;1.57;;;;;;;;;;4997990;28;20375;-78
2024/02/15 09:41:58;;;;;;;3.28;1.48;;;;;;;;;;4999173;28;20285;-78
2024/02/15 09:44:27;;;;;;;2.83;1.10;;;;;;;;;;5000853;28;20038;-78
2024/02/15 09:47:19;;;;;;;2.95;1.10;;;;;;;;;;4984483;28;20046;-75
2024/02/15 09:49:44;;;;;;;6.22;1.58;;;;;;;;;;4994085;28;20142;-76
2024/02/15 09:52:15;;;;;;;2.92;1.30;;;;;;;;;;4991864;28;20054;-76
2024/02/15 09:54:43;;;;;;;4.20;1.25;;;;;;;;;;4993663;28;20402;-76
2024/02/15 09:57:09;;;;;;;2.33;1.13;;;;;;;;;;5000053;28;20029;-76
2024/02/15 09:59:36;;;;;;;2.65;1.05;;;;;;;;;;4989773;28;20031;-76
2024/02/15 10:02:01;;;;;;;3.28;1.58;;;;;;;;;;4992998;28;20563;-76
2024/02/15 10:04:26;;;;;;;3.50;1.63;;;;;;;;;;4995316;28;20041;-76
2024/02/15 10:06:52;;;;;;;3.22;1.50;;;;;;;;;;4995459;28;20038;-75
2024/02/15 10:09:25;;;;;;;3.10;1.40;;;;;;;;;;4997288;28;20034;-76
2024/02/15 10:11:57;;;;;;;2.42;1.25;;;;;;;;;;4995246;28;20030;-75
2024/02/15 10:14:25;;;;;;;2.85;1.50;;;;;;;;;;4993362;28;20038;-76
2024/02/15 10:16:52;;;;;;;4.57;1.58;;;;;;;;;;4995889;28;20030;-76
2024/02/15 10:19:18;;;;;;;3.22;1.58;;;;;;;;;;4994021;28;20042;-76
2024/02/15 10:21:43;;;;;;;2.92;1.45;;;;;;;;;;4994128;28;20091;-76
2024/02/15 10:24:09;;;;;;;2.78;1.48;;;;;;;;;;4996739;28;20034;-76
2024/02/15 10:26:35;;;;;;;3.67;1.80;;;;;;;;;;4998472;28;20042;-76
2024/02/15 10:29:10;;;;;;;3.50;1.83;;;;;;;;;;4999889;28;20077;-76
2024/02/15 10:31:36;;;;;;;2.33;1.15;;;;;;;;;;4993964;28;20399;-76
2024/02/15 10:34:05;;;;;;;3.95;1.65;;;;;;;;;;4990616;28;20144;-76
2024/02/15 10:36:32;;;;;;;3.90;1.27;;;;;;;;;;4995410;28;20026;-75
2024/02/15 10:39:10;;;;;;;3.83;2.05;;;;;;;;;;4997129;28;20048;-76
2024/02/15 10:41:37;;;;;;;2.88;1.25;;;;;;;;;;4995891;28;20045;-76
2024/02/15 10:44:02;;;;;;;3.90;1.80;;;;;;;;;;4995587;28;20050;-76
2024/02/15 10:46:27;;;;;;;2.67;1.50;;;;;;;;;;4997115;28;20034;-76
2024/02/15 10:48:52;;;;;;;5.80;1.92;;;;;;;;;;5002449;28;20057;-76
2024/02/15 10:51:18;;;;;;;2.93;1.73;;;;;;;;;;4997560;28;20033;-76
2024/02/15 10:53:50;;;;;;;2.88;1.70;;;;;;;;;;4991618;28;20285;-76
2024/02/15 10:56:19;;;;;;;4.68;1.83;;;;;;;;;;4999586;28;20034;-76
2024/02/15 10:58:49;;;;;;;3.35;1.60;;;;;;;;;;4985390;28;20035;-76
2024/02/15 11:01:17;;;;;;;5.60;2.08;;;;;;;;;;4991489;28;20038;-76
2024/02/15 11:04:08;;;;;;;4.45;1.73;;;;;;;;;;5000902;28;20406;-76
2024/02/15 11:06:55;;;;;;;3.80;1.70;;;;;;;;;;5092593;22;20061;-76
2024/02/15 11:09:21;;;;;;;;;;;;;;;;;;4977507;28;20086;-77
2024/02/15 11:11:52;;;;;;;4.03;1.75;;;;;;;;;;4966093;28;20334;-77
2024/02/15 11:14:31;;;;;;;4.07;1.55;;;;;;;;;;4978465;28;20038;-77
2024/02/15 11:16:57;;;;;;;5.13;2.13;;;;;;;;;;4962767;28;20093;-77
2024/02/15 11:19:31;;;;;;;8.15;4.32;;;;;;;;;;4961910;28;20034;-77
2024/02/15 11:21:58;;;;;;;4.00;1.73;;;;;;;;;;4966214;28;20046;-76
2024/02/15 11:24:25;;;;;;;3.22;2.00;;;;;;;;;;4966241;28;20589;-77
2024/02/15 11:26:50;;;;;;;5.45;1.95;;;;;;;;;;4965603;28;20035;-77
2024/02/15 11:29:34;;;;;;;3.85;2.10;;;;;;;;;;4969726;28;20042;-78
2024/02/15 11:32:00;;;;;;;3.50;1.80;;;;;;;;;;4970884;28;20486;-78
2024/02/15 11:34:45;;;;;;;2.85;1.55;;;;;;;;;;4964358;28;20031;-78
2024/02/15 11:37:31;;;;;;;2.50;1.30;;;;;;;;;;4982825;28;20038;-77
2024/02/15 11:39:59;;;;;;;3.72;1.70;;;;;;;;;;4969006;28;20027;-77
2024/02/15 11:42:30;;;;;;;3.83;1.80;;;;;;;;;;4968231;28;20031;-77
2024/02/15 11:45:05;;;;;;;3.70;1.90;;;;;;;;;;4968794;28;20436;-77
2024/02/15 11:47:33;;;;;;;4.00;1.70;;;;;;;;;;4968517;28;20042;-77
2024/02/15 11:50:04;;;;;;;2.55;1.35;;;;;;;;;;4967165;28;20114;-77
2024/02/15 11:52:37;;;;;;;3.83;2.00;;;;;;;;;;4966156;28;20411;-78
2024/02/15 11:55:04;;;;;;;4.40;2.60;;;;;;;;;;4969289;28;20739;-78
2024/02/15 11:57:37;;;;;;;4.75;2.25;;;;;;;;;;4965082;28;20106;-78
2024/02/15 12:19:19;;;;;;;3.00;1.67;;;;;;;;;;4960638;28;20045;-77
2024/02/15 12:21:44;;;;;;;3.63;1.80;;;;;;;;;;4962156;28;20121;-77
2024/02/15 12:24:09;;;;;;;3.22;1.50;;;;;;;;;;4965096;28;20069;-77
2024/02/15 12:26:35;;;;;;;3.55;1.70;;;;;;;;;;4964261;28;20404;-77
2024/02/15 12:29:07;;;;;;;4.03;1.65;;;;;;;;;;4967326;28;20042;-76
2024/02/15 12:31:39;;;;;;;4.35;1.85;;;;;;;;;;4952389;28;20027;-76
2024/02/15 12:34:07;;;;;;;3.75;1.67;;;;;;;;;;4969217;28;20031;-75
2024/02/15 12:36:33;;;;;;;2.65;1.30;;;;;;;;;;4962942;28;20041;-77
2024/02/15 12:38:59;;;;;;;11.35;7.15;;;;;;;;;;4973571;28;20548;-75
2024/02/15 12:41:24;;;;;;;2.75;1.38;;;;;;;;;;4964049;28;20380;-76
2024/02/15 12:43:53;;;;;;;6.00;1.90;;;;;;;;;;4964068;28;20039;-76
2024/02/15 12:46:19;;;;;;;3.17;1.58;;;;;;;;;;4968773;28;20340;-77
2024/02/15 12:48:44;;;;;;;3.33;1.50;;;;;;;;;;4979743;28;20113;-77
2024/02/15 12:51:14;;;;;;;4.27;1.60;;;;;;;;;;4963616;28;20734;-77
2024/02/15 12:53:39;;;;;;;3.25;1.30;;;;;;;;;;4961283;28;20290;-77
2024/02/15 12:56:06;;;;;;;4.05;2.30;;;;;;;;;;4964958;28;20086;-77
2024/02/15 12:58:31;;;;;;;4.05;2.22;;;;;;;;;;4979325;28;20535;-77
2024/02/15 13:00:58;;;;;;;4.25;2.35;;;;;;;;;;4980581;28;20062;-77
2024/02/15 13:03:23;;;;;;;4.18;2.25;;;;;;;;;;4968928;28;20066;-77
2024/02/15 13:05:49;;;;;;;4.72;2.55;;;;;;;;;;4962526;28;20031;-76
2024/02/15 13:08:14;;;;;;;4.32;2.17;;;;;;;;;;4969829;28;20049;-77
2024/02/15 13:10:39;;;;;;;5.63;2.58;;;;;;;;;;4962333;28;20190;-77
2024/02/15 13:13:05;;;;;;;3.78;1.83;;;;;;;;;;4966466;28;20054;-76
2024/02/15 13:15:34;;;;;;;4.75;1.77;;;;;;;;;;4968469;28;20143;-77
2024/02/15 13:17:59;;;;;;;3.85;1.50;;;;;;;;;;4966197;28;20059;-77
2024/02/15 13:20:35;;;;;;;4.00;1.88;;;;;;;;;;4964593;28;20483;-77
2024/02/15 13:23:22;;;;;;;6.72;3.65;;;;;;;;;;4967061;28;20081;-77
2024/02/15 13:25:48;;;;;;;4.78;2.40;;;;;;;;;;4963766;28;20053;-77
2024/02/15 13:28:14;;;;;;;5.00;2.58;;;;;;;;;;4969086;28;20519;-77
2024/02/15 13:30:39;;;;;;;7.47;2.80;;;;;;;;;;4966772;28;20110;-76
2024/02/15 13:33:04;;;;;;;5.90;2.10;;;;;;;;;;4973754;28;20047;-77
2024/02/15 13:35:30;;;;;;;3.15;1.70;;;;;;;;;;4965691;28;20041;-77
2024/02/15 13:37:57;;;;;;;4.47;2.13;;;;;;;;;;4964145;28;20043;-77
2024/02/15 13:40:23;;;;;;;5.32;2.47;;;;;;;;;;4962998;28;20027;-77
2024/02/15 13:42:52;;;;;;;5.38;2.70;;;;;;;;;;4963867;28;20389;-77
2024/02/15 13:45:18;;;;;;;3.65;2.00;;;;;;;;;;4962016;28;20035;-77
2024/02/15 13:47:55;;;;;;;4.50;2.42;;;;;;;;;;4964074;28;20031;-77
2024/02/15 13:50:21;;;;;;;4.65;2.28;;;;;;;;;;4965536;28;20503;-77
2024/02/15 13:52:46;;;;;;;5.40;2.72;;;;;;;;;;4967748;28;20039;-77
2024/02/15 13:55:20;;;;;;;6.05;2.72;;;;;;;;;;4964257;28;20069;-77
2024/02/15 13:57:49;;;;;;;3.85;1.90;;;;;;;;;;4963936;28;20473;-77
2024/02/15 14:00:21;;;;;;;3.25;1.77;;;;;;;;;;4961160;28;20034;-77
2024/02/15 14:02:55;;;;;;;4.65;1.92;;;;;;;;;;4970138;28;20035;-77
2024/02/15 14:05:24;;;;;;;4.35;1.50;;;;;;;;;;4963851;28;20045;-77
2024/02/15 14:07:56;;;;;;;3.70;1.40;;;;;;;;;;4961741;28;20031;-77
2024/02/15 14:10:21;;;;;;;3.92;1.88;;;;;;;;;;4962132;28;20039;-77
2024/02/15 14:12:48;;;;;;;5.32;1.90;;;;;;;;;;4965104;28;20083;-77
2024/02/15 14:15:13;;;;;;;5.50;2.35;;;;;;;;;;4967821;28;20049;-77
2024/02/15 14:17:38;;;;;;;3.70;2.25;;;;;;;;;;4961891;28;20404;-77
2024/02/15 14:20:08;;;;;;;4.23;1.97;;;;;;;;;;4963848;28;20457;-77
2024/02/15 14:22:34;;;;;;;3.63;1.50;;;;;;;;;;4961941;28;20289;-77
2024/02/15 14:24:59;;;;;;;3.55;1.83;;;;;;;;;;4964426;28;20023;-76
2024/02/15 14:27:24;;;;;;;4.43;1.70;;;;;;;;;;4961192;28;20030;-76
2024/02/15 14:35:20;;;;;;;4.10;1.90;;;;;;;;;;4963064;28;20027;-76
2024/02/15 14:37:45;;;;;;;3.30;1.55;;;;;;;;;;4962513;28;20027;-76
2024/02/15 14:40:14;;;;;;;3.33;1.20;;;;;;;;;;4960454;28;20050;-76
2024/02/15 14:42:41;;;;;;;2.95;1.42;;;;;;;;;;4968054;28;20498;-77
2024/02/15 14:45:06;;;;;;;4.43;1.80;;;;;;;;;;4961748;28;20030;-76
2024/02/15 14:47:33;;;;;;;2.95;1.02;;;;;;;;;;4961679;28;20399;-77
2024/02/15 14:49:59;;;;;;;3.03;0.93;;;;;;;;;;4965970;28;20105;-77
2024/02/15 14:52:24;;;;;;;3.10;0.98;;;;;;;;;;4963991;28;20030;-76
2024/02/15 14:54:49;;;;;;;4.17;1.50;;;;;;;;;;4960751;28;20032;-77
2024/02/15 14:57:15;;;;;;;2.70;1.17;;;;;;;;;;4963736;28;20341;-77
2024/02/15 14:59:40;;;;;;;3.83;1.27;;;;;;;;;;4959210;28;20278;-77
2024/02/15 15:02:08;;;;;;;3.05;1.10;;;;;;;;;;4977043;28;20066;-77
2024/02/15 15:04:47;;;;;;;2.72;1.25;;;;;;;;;;4964945;28;20039;-79
2024/02/15 15:12:45;;;;;;;2.15;1.02;;;;;;;;;;4962913;28;20042;-75
2024/02/15 15:15:12;;;;;;;2.90;1.15;;;;;;;;;;4963842;28;20043;-75
2024/02/15 15:17:38;;;;;;;2.15;0.82;;;;;;;;;;4960394;28;20040;-76
2024/02/15 15:20:08;;;;;;;2.80;1.00;;;;;;;;;;4963144;28;20042;-75
2024/02/15 15:22:34;;;;;;;3.55;0.80;;;;;;;;;;4962419;28;20030;-76